Time;durP1;ratioP1;P1;durP2;ratioP2;P2;SDS_P1;SDS_P2;PMS_P1;PMS_P2;Temp;Humidity;BMP_temperature;BMP_pressure;BME280_temperature;BME280_humidity;BME280_pressure;Samples;Min_cycle;Max_cycle;Signal;HPM_P1;HPM_P2
2022/08/03 00:00:44;;;;;;;6.47;1.98;;;;;;;16.86;84.39;99707.38;5045559;28;20063;-80
2022/08/03 00:03:10;;;;;;;8.40;2.20;;;;;;;16.87;84.42;99702.84;5051109;28;20409;-80
2022/08/03 00:05:36;;;;;;;9.35;1.88;;;;;;;16.83;84.70;99702.41;5044140;28;20385;-81
2022/08/03 00:08:02;;;;;;;7.30;2.03;;;;;;;16.85;84.58;99702.25;5053352;28;20033;-80
2022/08/03 00:10:29;;;;;;;6.93;1.75;;;;;;;16.84;84.82;99698.75;5057867;28;20053;-80
2022/08/03 00:12:54;;;;;;;5.78;2.05;;;;;;;16.82;85.00;99702.63;5035076;28;20440;-80
2022/08/03 00:15:20;;;;;;;3.78;1.80;;;;;;;16.81;84.93;99699.16;5050542;28;20037;-81
2022/08/03 00:17:46;;;;;;;5.15;1.55;;;;;;;16.81;84.93;99698.31;5049749;28;20397;-80
2022/08/03 00:20:12;;;;;;;8.95;1.73;;;;;;;16.80;84.96;99702.81;5054313;28;20075;-80
2022/08/03 00:22:38;;;;;;;7.28;1.58;;;;;;;16.79;84.96;99703.03;5053540;28;20036;-81
2022/08/03 00:25:04;;;;;;;7.55;2.00;;;;;;;16.77;85.04;99697.91;5053921;28;20426;-80
2022/08/03 00:27:30;;;;;;;3.08;1.33;;;;;;;16.73;85.02;99688.66;5053206;28;20068;-80
2022/08/03 00:29:56;;;;;;;7.22;1.60;;;;;;;16.74;84.86;99695.63;5054243;28;20029;-80
2022/08/03 00:32:22;;;;;;;3.75;1.48;;;;;;;16.76;84.60;99695.44;5035983;28;20076;-80
2022/08/03 00:34:48;;;;;;;7.70;1.45;;;;;;;16.78;84.32;99696.06;5054660;28;20033;-80
2022/08/03 00:37:14;;;;;;;4.68;2.00;;;;;;;16.77;84.24;99697.09;5062544;28;20031;-81
2022/08/03 00:39:42;;;;;;;5.63;1.50;;;;;;;16.80;84.22;99702.03;5047274;28;20497;-80
2022/08/03 00:42:08;;;;;;;6.15;1.65;;;;;;;16.77;83.95;99697.09;5053588;28;20115;-80
2022/08/03 00:44:41;;;;;;;9.55;1.90;;;;;;;16.77;83.73;99695.22;5062641;28;20024;-80
2022/08/03 00:47:09;;;;;;;5.25;1.95;;;;;;;16.77;83.90;99694.41;5056268;28;20033;-81
2022/08/03 00:49:36;;;;;;;7.32;1.60;;;;;;;16.76;83.80;99700.75;5052743;28;20028;-80
2022/08/03 00:52:02;;;;;;;6.20;2.08;;;;;;;16.73;83.84;99700.16;5054073;28;20393;-80
2022/08/03 00:54:29;;;;;;;7.32;2.00;;;;;;;16.73;83.83;99704.69;5056915;28;20048;-80
2022/08/03 00:56:55;;;;;;;7.20;1.50;;;;;;;16.77;83.70;99697.09;5058277;28;20033;-80
2022/08/03 00:59:21;;;;;;;6.15;1.40;;;;;;;16.77;83.69;99695.22;5054708;28;20074;-81
2022/08/03 01:01:47;;;;;;;9.32;1.48;;;;;;;16.79;83.62;99703.84;5027683;28;20428;-81
2022/08/03 01:04:13;;;;;;;5.72;1.30;;;;;;;16.80;83.45;99707.34;5054272;28;20025;-80
2022/08/03 01:06:57;;;;;;;8.27;1.55;;;;;;;16.76;83.54;99685.59;5053276;28;20039;-80
2022/08/03 01:09:29;;;;;;;6.05;1.77;;;;;;;16.77;83.77;99689.88;5035772;28;20025;-80
2022/08/03 01:12:02;;;;;;;5.20;1.40;;;;;;;16.78;83.84;99696.06;5045684;28;20159;-80
2022/08/03 01:14:37;;;;;;;5.07;2.00;;;;;;;16.80;83.95;99700.16;5034511;28;20032;-80
2022/08/03 01:17:18;;;;;;;9.02;1.85;;;;;;;16.80;84.04;99700.16;5051014;28;20478;-80
2022/08/03 01:20:01;;;;;;;7.47;1.98;;;;;;;16.80;84.22;99707.34;5052921;28;20143;-80
2022/08/03 01:22:48;;;;;;;5.68;1.65;;;;;;;16.82;84.71;99700.78;5052948;28;20047;-80
2022/08/03 01:25:50;;;;;;;9.10;1.90;;;;;;;16.71;84.99;99701.38;5053692;28;20059;-80
2022/08/03 01:28:25;;;;;;;5.35;1.65;;;;;;;16.72;85.53;99709.19;5051589;28;20029;-80
2022/08/03 01:30:55;;;;;;;7.50;1.40;;;;;;;16.67;86.02;99702.81;5054558;28;20090;-80
2022/08/03 01:33:25;;;;;;;6.57;2.20;;;;;;;16.61;86.06;99699.13;5052352;28;20040;-80
2022/08/03 01:36:00;;;;;;;3.75;1.40;;;;;;;16.57;86.22;99703.22;5054682;28;20041;-80
2022/08/03 01:38:33;;;;;;;5.63;1.45;;;;;;;16.51;86.69;99704.84;5052091;28;20036;-80
2022/08/03 01:41:07;;;;;;;5.95;2.03;;;;;;;16.46;87.04;99708.13;5053026;28;20041;-80
2022/08/03 01:43:34;;;;;;;8.52;1.30;;;;;;;16.45;86.89;99706.47;5080216;28;20040;-80
2022/08/03 01:46:03;;;;;;;7.43;1.95;;;;;;;16.41;87.18;99699.06;5030803;28;20029;-80
2022/08/03 01:48:30;;;;;;;7.68;1.63;;;;;;;16.33;87.10;99700.91;5038186;28;20056;-80
2022/08/03 01:50:58;;;;;;;8.27;1.70;;;;;;;16.31;87.00;99710.13;5054323;28;20086;-80
2022/08/03 01:53:25;;;;;;;10.77;1.58;;;;;;;16.24;86.79;99704.78;5053641;28;20029;-80
2022/08/03 01:55:54;;;;;;;7.72;1.45;;;;;;;16.21;86.57;99710.50;5054197;28;20033;-80
2022/08/03 01:58:23;;;;;;;9.73;1.17;;;;;;;16.17;86.10;99709.25;5053529;28;20037;-80
2022/08/03 02:00:50;;;;;;;13.02;2.00;;;;;;;16.14;85.79;99707.81;5053026;28;20036;-80
2022/08/03 02:03:18;;;;;;;5.10;0.90;;;;;;;16.16;85.45;99715.63;5051598;28;20036;-80
2022/08/03 02:05:46;;;;;;;8.18;1.00;;;;;;;16.19;85.12;99712.53;5052155;28;20035;-80
2022/08/03 02:08:15;;;;;;;13.80;1.08;;;;;;;16.14;84.63;99699.81;5048931;28;20053;-81
2022/08/03 02:10:43;;;;;;;6.47;1.27;;;;;;;16.15;84.43;99698.78;5043612;28;20064;-80
2022/08/03 02:13:09;;;;;;;3.80;1.13;;;;;;;16.09;84.34;99689.75;5051503;28;20099;-80
2022/08/03 02:15:37;;;;;;;6.05;1.27;;;;;;;16.05;84.22;99690.34;5058079;28;20087;-80
2022/08/03 02:18:06;;;;;;;8.60;1.33;;;;;;;16.08;83.78;99692.63;5044216;28;20075;-80
2022/08/03 02:20:35;;;;;;;7.00;1.30;;;;;;;16.09;83.83;99695.09;5050291;28;20033;-80
2022/08/03 02:23:01;;;;;;;3.83;1.00;;;;;;;16.11;83.63;99692.22;5050656;28;20389;-80
2022/08/03 02:25:29;;;;;;;7.75;1.58;;;;;;;16.11;83.63;99692.22;5051224;28;20033;-80
2022/08/03 02:27:59;;;;;;;7.65;1.30;;;;;;;16.12;83.58;99683.19;5058250;28;20481;-80
2022/08/03 02:30:32;;;;;;;11.00;1.90;;;;;;;16.11;83.47;99685.06;5051809;28;20124;-80
2022/08/03 02:32:59;;;;;;;6.97;1.23;;;;;;;16.09;83.49;99695.09;5034666;28;20033;-80
2022/08/03 02:35:28;;;;;;;4.43;0.98;;;;;;;16.06;83.31;99684.81;5051781;28;20025;-80
2022/08/03 02:37:59;;;;;;;8.10;1.35;;;;;;;16.03;83.47;99695.88;5050520;28;20029;-80
2022/08/03 02:40:27;;;;;;;4.47;1.02;;;;;;;16.03;83.61;99687.06;5051745;28;20033;-80
2022/08/03 02:42:56;;;;;;;5.72;1.35;;;;;;;16.05;83.43;99696.50;5052056;28;20063;-80
2022/08/03 02:45:25;;;;;;;5.47;1.05;;;;;;;16.04;83.43;99702.84;5064563;28;20028;-80
2022/08/03 02:47:57;;;;;;;8.95;1.17;;;;;;;15.98;83.30;99704.47;5051734;28;20432;-80
2022/08/03 02:50:24;;;;;;;3.45;0.88;;;;;;;15.91;83.63;99711.56;5051698;28;20087;-80
2022/08/03 02:52:52;;;;;;;6.25;1.13;;;;;;;15.91;83.92;99716.91;5050621;28;20041;-80
2022/08/03 02:55:21;;;;;;;8.45;1.05;;;;;;;15.95;83.53;99707.50;5082741;28;20037;-80
2022/08/03 02:57:48;;;;;;;5.53;0.75;;;;;;;15.96;83.22;99722.47;5050395;28;20489;-80
2022/08/03 03:00:16;;;;;;;5.85;0.75;;;;;;;15.96;83.44;99719.81;5051680;28;20067;-80
2022/08/03 03:02:43;;;;;;;6.75;0.90;;;;;;;15.96;83.35;99718.97;5047831;28;20029;-80
2022/08/03 03:05:09;;;;;;;8.63;1.67;;;;;;;15.90;83.86;99717.94;5045305;28;20022;-80
2022/08/03 03:07:36;;;;;;;3.22;0.80;;;;;;;15.85;84.43;99712.38;5067057;28;20461;-80
2022/08/03 03:10:04;;;;;;;3.70;0.80;;;;;;;15.82;84.93;99712.75;5051762;28;20025;-80
2022/08/03 03:12:31;;;;;;;4.43;1.15;;;;;;;15.75;85.26;99705.56;5051400;28;20056;-80
2022/08/03 03:14:57;;;;;;;5.55;1.13;;;;;;;15.74;85.68;99708.41;5050718;28;20056;-80
2022/08/03 03:17:23;;;;;;;9.23;1.85;;;;;;;15.71;86.09;99711.47;5050781;28;20478;-80
2022/08/03 03:19:51;;;;;;;8.38;1.30;;;;;;;15.69;86.43;99702.84;5051403;28;20553;-80
2022/08/03 03:22:18;;;;;;;5.70;1.13;;;;;;;15.69;86.82;99702.84;5051350;28;20037;-80
2022/08/03 03:24:46;;;;;;;6.00;1.30;;;;;;;15.73;86.72;99714.78;5050058;28;20052;-80
2022/08/03 03:27:14;;;;;;;6.40;0.85;;;;;;;15.78;86.69;99707.03;5056013;28;20028;-80
2022/08/03 03:29:40;;;;;;;9.02;1.20;;;;;;;15.79;86.77;99711.31;5050611;28;20067;-80
2022/08/03 03:32:06;;;;;;;8.70;1.25;;;;;;;15.79;86.67;99711.31;5049742;28;20111;-80
2022/08/03 03:34:32;;;;;;;7.38;1.05;;;;;;;15.84;86.78;99721.38;5051505;28;20127;-80
2022/08/03 03:36:58;;;;;;;5.95;1.20;;;;;;;15.82;87.00;99724.25;5057793;28;20481;-80
2022/08/03 03:39:24;;;;;;;5.90;1.00;;;;;;;15.78;87.75;99723.00;5033377;28;20453;-80
2022/08/03 03:41:50;;;;;;;5.65;1.35;;;;;;;15.67;89.09;99726.22;5049692;28;20033;-80
2022/08/03 03:44:16;;;;;;;5.20;1.20;;;;;;;15.53;90.02;99722.66;5055337;28;20033;-80
2022/08/03 03:46:42;;;;;;;7.22;1.20;;;;;;;15.45;91.21;99720.97;5052593;28;20378;-80
2022/08/03 03:49:09;;;;;;;5.80;1.30;;;;;;;15.38;91.63;99719.06;5070699;28;20043;-80
2022/08/03 03:51:35;;;;;;;8.45;1.17;;;;;;;15.38;91.89;99720.91;5054168;28;20047;-80
2022/08/03 03:54:04;;;;;;;9.10;1.70;;;;;;;15.38;92.05;99726.25;5053550;28;20029;-80
2022/08/03 03:56:30;;;;;;;7.47;1.55;;;;;;;15.41;92.11;99736.50;5075504;28;20033;-80
2022/08/03 03:58:56;;;;;;;11.77;1.33;;;;;;;15.43;91.85;99753.09;5057805;28;20119;-80
2022/08/03 04:01:22;;;;;;;10.45;1.40;;;;;;;15.44;92.16;99748.59;5040975;28;20033;-80
2022/08/03 04:03:47;;;;;;;6.80;0.93;;;;;;;15.46;92.18;99750.06;5055203;28;20037;-80
2022/08/03 04:11:52;;;;;;;7.50;1.15;;;;;;;15.60;92.07;99758.13;5044387;28;20040;-80
2022/08/03 04:14:29;;;;;;;2.95;0.82;;;;;;;15.60;91.98;99755.47;5054360;28;20037;-80
2022/08/03 04:17:03;;;;;;;6.65;1.25;;;;;;;15.58;92.06;99741.50;5056634;28;20032;-80
2022/08/03 04:19:34;;;;;;;7.10;1.67;;;;;;;15.59;92.31;99743.19;5055691;28;20055;-80
2022/08/03 04:22:05;;;;;;;5.30;1.00;;;;;;;15.58;92.17;99746.84;5055827;28;20050;-79
2022/08/03 04:24:34;;;;;;;6.75;1.27;;;;;;;15.55;92.31;99745.41;5054198;28;20082;-80
2022/08/03 04:27:03;;;;;;;9.13;1.65;;;;;;;15.52;92.41;99747.63;5077509;28;20112;-80
2022/08/03 04:29:33;;;;;;;9.65;1.45;;;;;;;15.48;92.33;99739.22;5055452;28;20029;-79
2022/08/03 04:32:00;;;;;;;11.75;2.08;;;;;;;15.52;92.43;99745.78;5054990;28;20033;-79
2022/08/03 04:34:26;;;;;;;9.95;1.85;;;;;;;15.54;92.33;99748.25;5055360;28;20033;-79
2022/08/03 04:36:57;;;;;;;8.13;1.63;;;;;;;15.51;92.11;99754.81;5039400;28;20039;-79
2022/08/03 04:39:25;;;;;;;10.13;1.73;;;;;;;15.47;92.26;99758.84;5056304;28;20060;-79
2022/08/03 04:41:57;;;;;;;8.98;1.38;;;;;;;15.37;92.39;99761.84;5049638;28;20079;-79
2022/08/03 04:44:24;;;;;;;10.25;1.58;;;;;;;15.29;92.92;99770.00;5055062;28;20122;-79
2022/08/03 04:46:51;;;;;;;10.00;1.67;;;;;;;15.23;93.29;99768.91;5054399;28;20044;-80
2022/08/03 04:49:19;;;;;;;7.72;1.50;;;;;;;15.19;93.48;99765.84;5053580;28;20043;-80
2022/08/03 04:51:46;;;;;;;8.52;1.67;;;;;;;15.17;93.57;99762.53;5055413;28;20494;-80
2022/08/03 04:54:14;;;;;;;14.95;1.90;;;;;;;15.16;93.19;99765.38;5051771;28;20033;-80
2022/08/03 04:56:41;;;;;;;6.82;1.73;;;;;;;15.08;93.22;99767.16;5052266;28;20043;-80
2022/08/03 04:59:09;;;;;;;11.25;2.35;;;;;;;15.00;92.96;99773.41;5054003;28;20114;-80
2022/08/03 05:01:35;;;;;;;9.43;1.80;;;;;;;14.93;92.90;99772.53;5047566;28;20544;-80
2022/08/03 05:04:02;;;;;;;11.60;1.80;;;;;;;14.87;92.39;99771.44;5054239;28;20078;-80
2022/08/03 05:06:28;;;;;;;8.05;1.92;;;;;;;14.82;92.39;99773.03;5032059;28;20033;-80
2022/08/03 05:08:54;;;;;;;9.40;1.70;;;;;;;14.77;92.70;99773.56;5067515;28;20037;-80
2022/08/03 05:11:20;;;;;;;11.48;2.15;;;;;;;14.70;92.62;99768.19;5053248;28;20445;-80
2022/08/03 05:13:46;;;;;;;10.95;1.90;;;;;;;14.72;92.67;99770.66;5054109;28;20106;-80
2022/08/03 05:16:13;;;;;;;14.02;1.92;;;;;;;14.71;92.69;99774.34;5051616;28;20033;-80
2022/08/03 05:18:40;;;;;;;10.10;1.65;;;;;;;14.71;92.40;99779.66;5052535;28;20062;-80
2022/08/03 05:21:08;;;;;;;12.07;2.38;;;;;;;14.73;92.49;99777.66;5052613;28;20033;-80
2022/08/03 05:23:34;;;;;;;14.75;1.70;;;;;;;14.71;92.11;99772.50;5052952;28;20099;-81
2022/08/03 05:26:00;;;;;;;10.20;2.33;;;;;;;14.70;92.32;99783.34;5057076;28;20028;-80
2022/08/03 05:28:25;;;;;;;12.60;2.35;;;;;;;14.72;92.08;99789.28;5052064;28;20040;-80
2022/08/03 05:30:51;;;;;;;10.77;2.10;;;;;;;14.71;91.70;99790.28;5049165;28;20032;-80
2022/08/03 05:33:17;;;;;;;12.90;1.90;;;;;;;14.71;91.47;99783.16;5020809;28;20128;-80
2022/08/03 05:35:43;;;;;;;11.45;2.22;;;;;;;14.71;91.27;99796.44;5065062;28;20037;-80
2022/08/03 05:38:09;;;;;;;19.50;2.88;;;;;;;14.71;90.92;99784.97;5061352;28;20108;-80
2022/08/03 05:40:35;;;;;;;11.20;2.10;;;;;;;14.72;90.92;99783.94;5052406;28;20098;-80
2022/08/03 05:43:00;;;;;;;13.75;2.10;;;;;;;14.71;90.62;99788.47;5035502;28;20032;-80
2022/08/03 05:45:26;;;;;;;10.27;2.13;;;;;;;14.69;90.67;99785.16;5046893;28;20026;-80
2022/08/03 05:47:52;;;;;;;17.55;2.50;;;;;;;14.74;90.66;99792.56;5074424;28;20036;-80
2022/08/03 05:50:19;;;;;;;13.05;2.65;;;;;;;14.79;90.46;99792.88;5051469;28;20043;-80
2022/08/03 05:52:45;;;;;;;19.92;2.40;;;;;;;14.86;90.43;99788.44;5053351;28;20033;-80
2022/08/03 05:55:12;;;;;;;13.57;2.15;;;;;;;14.96;90.15;99787.28;5045740;28;20158;-80
2022/08/03 05:57:39;;;;;;;19.10;2.35;;;;;;;15.03;90.04;99793.53;5051878;28;20037;-80
2022/08/03 06:00:10;;;;;;;15.68;2.33;;;;;;;15.12;89.73;99799.53;5052039;28;20116;-79
2022/08/03 06:02:38;;;;;;;11.20;1.88;;;;;;;15.15;89.74;99799.16;5044311;28;20043;-79
2022/08/03 06:05:05;;;;;;;21.58;2.60;;;;;;;15.21;89.66;99797.59;5048665;28;20029;-79
2022/08/03 06:07:31;;;;;;;17.48;3.10;;;;;;;15.19;89.84;99802.28;5051094;28;20393;-79
2022/08/03 06:09:57;;;;;;;15.68;1.88;;;;;;;15.18;89.98;99808.63;5052181;28;20032;-80
2022/08/03 06:12:23;;;;;;;15.80;4.88;;;;;;;15.20;90.18;99809.22;5051827;28;20103;-80
2022/08/03 06:14:49;;;;;;;12.10;2.30;;;;;;;15.24;90.28;99810.50;5051179;28;20039;-80
2022/08/03 06:17:14;;;;;;;8.18;2.10;;;;;;;15.24;90.36;99808.66;5052708;28;20033;-80
2022/08/03 06:19:40;;;;;;;17.08;2.13;;;;;;;15.28;90.27;99809.09;5052425;28;20090;-80
2022/08/03 06:22:06;;;;;;;14.18;2.03;;;;;;;15.29;90.10;99817.94;5048448;28;20025;-80
2022/08/03 06:24:32;;;;;;;11.73;1.98;;;;;;;15.25;90.05;99817.47;5041354;28;20033;-80
2022/08/03 06:26:58;;;;;;;17.33;2.40;;;;;;;15.26;90.19;99821.78;5059465;28;20167;-80
2022/08/03 06:29:23;;;;;;;10.52;2.13;;;;;;;15.28;90.16;99826.91;5052220;28;20045;-79
2022/08/03 06:31:49;;;;;;;10.40;2.20;;;;;;;15.27;89.99;99833.25;5042223;28;20032;-80
2022/08/03 06:34:15;;;;;;;19.10;2.38;;;;;;;15.19;89.80;99835.03;5051021;28;20047;-80
2022/08/03 06:36:41;;;;;;;12.73;2.15;;;;;;;15.15;89.90;99828.44;5082262;28;20032;-79
2022/08/03 06:39:07;;;;;;;15.20;1.90;;;;;;;15.20;89.88;99833.19;5047462;28;20073;-80
2022/08/03 06:41:33;;;;;;;12.05;1.95;;;;;;;15.25;89.74;99846.75;5052816;28;20069;-80
2022/08/03 06:43:59;;;;;;;12.52;1.63;;;;;;;15.29;89.58;99839.22;5054848;28;20036;-79
2022/08/03 06:46:25;;;;;;;12.50;2.30;;;;;;;15.31;89.42;99843.34;5056233;28;20072;-80
2022/08/03 06:48:51;;;;;;;16.02;2.45;;;;;;;15.35;89.59;99841.94;5051167;28;20131;-80
2022/08/03 06:51:16;;;;;;;13.30;2.25;;;;;;;15.45;89.24;99844.28;5050589;28;20450;-79
2022/08/03 06:53:42;;;;;;;18.08;2.67;;;;;;;15.46;89.31;99845.94;5050593;28;20036;-80
2022/08/03 06:56:08;;;;;;;17.02;2.22;;;;;;;15.44;89.18;99847.97;5050930;28;20032;-79
2022/08/03 06:58:34;;;;;;;11.63;1.83;;;;;;;15.41;89.11;99835.03;5052455;28;20036;-79
2022/08/03 07:01:00;;;;;;;12.90;1.67;;;;;;;15.45;89.33;99832.81;5032420;28;20108;-79
2022/08/03 07:03:26;;;;;;;11.32;1.83;;;;;;;15.50;89.17;99833.88;5057503;28;20029;-79
2022/08/03 07:05:52;;;;;;;19.45;3.17;;;;;;;15.52;88.88;99836.34;5061491;28;20510;-80
2022/08/03 07:08:18;;;;;;;10.82;1.92;;;;;;;15.57;88.88;99833.94;5052588;28;20447;-79
2022/08/03 07:10:44;;;;;;;13.40;2.05;;;;;;;15.64;88.72;99831.31;5051397;28;20482;-80
2022/08/03 07:13:10;;;;;;;14.07;1.90;;;;;;;15.68;88.33;99840.56;5050100;28;20053;-79
2022/08/03 07:15:37;;;;;;;16.58;2.00;;;;;;;15.69;88.28;99828.91;5050125;28;20114;-80
2022/08/03 07:18:02;;;;;;;8.55;1.45;;;;;;;15.74;88.39;99828.31;5048140;28;20428;-80
2022/08/03 07:20:29;;;;;;;12.88;2.25;;;;;;;15.81;88.09;99831.03;5054279;28;20044;-80
2022/08/03 07:22:55;;;;;;;10.88;2.00;;;;;;;15.83;87.75;99827.13;5025547;28;20090;-79
2022/08/03 07:25:21;;;;;;;9.77;1.45;;;;;;;15.81;87.43;99826.53;5047138;28;20481;-79
2022/08/03 07:27:47;;;;;;;9.02;1.75;;;;;;;15.82;87.17;99830.84;5056928;28;20029;-80
2022/08/03 07:30:14;;;;;;;6.55;1.17;;;;;;;15.92;87.35;99835.84;5042956;28;20033;-79
2022/08/03 07:32:41;;;;;;;9.82;1.50;;;;;;;16.05;86.79;99827.13;5049221;28;20104;-80
2022/08/03 07:35:08;;;;;;;5.97;0.90;;;;;;;16.17;86.32;99827.38;5006763;28;20033;-79
2022/08/03 07:37:34;;;;;;;7.10;1.35;;;;;;;16.30;85.89;99828.47;5056901;28;20542;-80
2022/08/03 07:40:01;;;;;;;8.88;1.40;;;;;;;16.52;85.08;99831.03;5052260;28;20112;-80
2022/08/03 07:42:28;;;;;;;5.30;1.13;;;;;;;16.54;84.08;99837.84;5040210;28;20037;-80
2022/08/03 07:44:55;;;;;;;5.93;1.20;;;;;;;16.41;83.28;99843.91;5049497;28;20059;-79
2022/08/03 07:47:26;;;;;;;11.27;1.73;;;;;;;16.29;82.92;99840.16;5048569;28;20389;-79
2022/08/03 07:49:53;;;;;;;6.85;1.35;;;;;;;16.25;83.13;99837.06;5051377;28;20444;-80
2022/08/03 07:55:05;;;;;;;11.27;1.42;;;;;;;16.23;83.34;99839.94;5049832;28;20036;-80
2022/08/03 07:57:32;;;;;;;11.30;1.63;;;;;;;16.41;83.32;99849.25;5040715;28;20029;-80
2022/08/03 07:59:58;;;;;;;10.20;1.35;;;;;;;16.68;83.03;99853.88;5047379;28;20510;-80
2022/08/03 08:02:24;;;;;;;6.90;1.17;;;;;;;16.88;82.33;99859.31;5049883;28;20029;-79
2022/08/03 08:04:50;;;;;;;14.35;2.42;;;;;;;16.96;81.72;99868.97;5049709;28;20094;-79
2022/08/03 08:07:16;;;;;;;10.73;1.77;;;;;;;16.95;81.39;99859.31;5031557;28;20036;-80
2022/08/03 08:09:42;;;;;;;9.68;1.60;;;;;;;16.92;81.33;99860.53;5032449;28;20052;-80
2022/08/03 08:12:10;;;;;;;11.75;2.10;;;;;;;16.91;80.87;99869.56;5027205;28;20099;-80
2022/08/03 08:14:35;;;;;;;9.48;1.60;;;;;;;16.79;80.95;99872.00;5048576;28;20036;-80
2022/08/03 08:17:01;;;;;;;7.55;1.65;;;;;;;16.82;81.02;99866.25;5038868;28;20037;-80
2022/08/03 08:19:27;;;;;;;9.00;1.75;;;;;;;16.86;81.00;99875.53;5050340;28;20065;-81
2022/08/03 08:21:53;;;;;;;12.40;1.63;;;;;;;16.86;80.53;99875.53;5049916;28;20063;-80
2022/08/03 08:24:19;;;;;;;13.55;1.50;;;;;;;16.82;80.65;99881.44;5052465;28;20061;-80
2022/08/03 08:26:44;;;;;;;11.77;1.95;;;;;;;16.71;80.46;99878.31;5051929;28;20044;-80
2022/08/03 08:29:11;;;;;;;7.82;1.40;;;;;;;16.67;80.95;99882.41;5051935;28;20036;-80
2022/08/03 08:31:37;;;;;;;6.20;1.20;;;;;;;16.65;81.07;99883.63;5053712;28;20044;-81
2022/08/03 08:34:04;;;;;;;10.20;1.75;;;;;;;16.73;81.59;99883.47;5070396;28;20033;-80
2022/08/03 08:36:34;;;;;;;11.13;1.42;;;;;;;16.86;80.83;99880.03;5054698;28;20454;-80
2022/08/03 08:39:00;;;;;;;10.90;1.33;;;;;;;16.85;81.09;99879.19;5054386;28;20040;-80
2022/08/03 08:41:27;;;;;;;10.23;1.38;;;;;;;16.82;81.25;99884.09;5085004;28;20064;-80
2022/08/03 08:43:53;;;;;;;8.60;1.02;;;;;;;16.77;81.20;99890.03;5054301;28;20043;-80
2022/08/03 08:46:20;;;;;;;6.05;1.38;;;;;;;16.74;81.35;99891.28;5053118;28;20040;-80
2022/08/03 08:48:49;;;;;;;4.82;0.80;;;;;;;16.69;81.54;99901.72;5051634;28;20378;-80
2022/08/03 08:51:18;;;;;;;5.40;0.77;;;;;;;16.65;81.55;99897.81;5086383;28;20021;-80
2022/08/03 08:53:48;;;;;;;3.40;0.60;;;;;;;16.62;81.34;99892.84;5052658;28;20028;-80
2022/08/03 08:56:16;;;;;;;3.78;0.65;;;;;;;16.67;81.58;99892.25;5050896;28;20029;-80
2022/08/03 08:58:59;;;;;;;2.47;0.60;;;;;;;16.66;81.28;99887.97;5049618;28;20029;-80
2022/08/03 09:01:26;;;;;;;5.53;0.70;;;;;;;16.66;81.42;99888.75;5052158;28;20029;-80
2022/08/03 09:03:53;;;;;;;11.35;1.00;;;;;;;16.66;81.48;99896.75;5051846;28;20028;-80
2022/08/03 09:06:22;;;;;;;5.97;0.73;;;;;;;16.68;81.88;99899.22;5053348;28;20025;-80
2022/08/03 09:08:48;;;;;;;8.75;1.13;;;;;;;16.71;82.30;99899.66;5085148;28;20040;-80
2022/08/03 09:11:14;;;;;;;2.05;0.55;;;;;;;16.78;82.25;99891.69;5032479;28;20034;-80
2022/08/03 09:13:40;;;;;;;4.93;0.60;;;;;;;16.82;81.92;99897.44;5069162;28;20098;-80
2022/08/03 09:16:13;;;;;;;5.40;0.90;;;;;;;16.84;81.91;99892.75;5053576;28;20029;-80
2022/08/03 09:18:41;;;;;;;5.50;0.95;;;;;;;16.90;81.65;99902.63;5053911;28;20033;-80
2022/08/03 09:21:17;;;;;;;4.68;1.00;;;;;;;16.89;81.29;99898.31;5053172;28;20500;-80
2022/08/03 09:23:48;;;;;;;6.43;0.65;;;;;;;16.87;80.98;99881.66;5053342;28;20095;-80
2022/08/03 09:26:25;;;;;;;3.88;0.40;;;;;;;16.88;81.05;99891.34;5056168;28;20025;-80
2022/08/03 09:28:59;;;;;;;4.60;1.00;;;;;;;16.81;81.88;99887.81;5052447;28;20037;-80
2022/08/03 09:31:36;;;;;;;4.93;0.60;;;;;;;16.87;82.58;99895.00;5052375;28;20104;-80
2022/08/03 09:34:03;;;;;;;2.85;0.73;;;;;;;16.92;82.78;99897.91;5059227;28;20060;-80
2022/08/03 09:36:45;;;;;;;9.55;0.73;;;;;;;16.95;82.62;99900.19;5054931;28;20086;-80
2022/08/03 09:39:20;;;;;;;6.72;0.80;;;;;;;16.98;82.96;99897.09;5052418;28;20024;-80
2022/08/03 09:42:07;;;;;;;3.25;0.73;;;;;;;17.06;83.40;99911.28;5051383;28;20028;-80
2022/08/03 09:44:38;;;;;;;1.30;0.43;;;;;;;17.15;83.10;99907.47;5042580;28;20044;-80
2022/08/03 09:47:05;;;;;;;1.45;0.40;;;;;;;17.23;83.10;99899.25;5053047;28;20120;-80
2022/08/03 09:49:31;;;;;;;3.97;1.25;;;;;;;17.26;82.45;99897.22;5064224;28;20064;-80
2022/08/03 09:52:01;;;;;;;3.83;0.73;;;;;;;17.34;82.36;99897.81;5049556;28;20037;-81
2022/08/03 09:54:31;;;;;;;4.03;0.60;;;;;;;17.48;81.90;99906.72;5057819;28;20036;-79
2022/08/03 09:56:58;;;;;;;5.13;0.40;;;;;;;17.51;81.66;99901.97;5036627;28;20046;-80
2022/08/03 09:59:26;;;;;;;4.50;0.68;;;;;;;17.56;80.88;99902.19;5045650;28;20036;-79
2022/08/03 10:01:53;;;;;;;1.88;0.30;;;;;;;17.62;80.68;99909.38;5085772;28;20025;-80
2022/08/03 10:04:20;;;;;;;5.40;0.40;;;;;;;17.57;79.79;99904.66;5058162;28;20032;-80
2022/08/03 10:07:08;;;;;;;1.00;0.38;;;;;;;17.54;79.03;99917.59;5058006;28;20031;-80
2022/08/03 10:09:35;;;;;;;2.67;0.35;;;;;;;17.56;79.72;99924.41;5057461;28;20036;-80
2022/08/03 10:12:09;;;;;;;1.67;0.30;;;;;;;17.72;79.03;99915.16;5053984;28;20413;-80
2022/08/03 10:14:40;;;;;;;2.53;0.40;;;;;;;17.89;78.81;99906.72;5052703;28;20029;-80
2022/08/03 10:17:08;;;;;;;2.08;0.30;;;;;;;17.93;78.14;99897.25;5054734;28;20025;-81
2022/08/03 10:19:34;;;;;;;2.42;0.55;;;;;;;17.85;77.61;99906.28;5055174;28;20032;-80
2022/08/03 10:22:04;;;;;;;2.33;0.38;;;;;;;17.74;77.39;99896.25;5047783;28;20039;-80
2022/08/03 10:24:34;;;;;;;3.92;0.30;;;;;;;17.78;77.91;99896.63;5052303;28;20037;-80
2022/08/03 10:27:02;;;;;;;2.38;0.40;;;;;;;17.93;77.98;99885.75;5062688;28;20512;-80
2022/08/03 10:29:53;;;;;;;2.05;0.50;;;;;;;18.10;77.46;99896.81;5051231;28;20055;-80
2022/08/03 10:32:30;;;;;;;1.40;0.40;;;;;;;18.18;77.31;99902.00;5050467;28;20120;-80
2022/08/03 10:35:03;;;;;;;1.63;0.45;;;;;;;18.35;76.58;99904.22;5052834;28;20036;-81
2022/08/03 10:37:33;;;;;;;1.52;0.35;;;;;;;18.62;76.59;99900.66;5057776;28;20060;-80
2022/08/03 10:39:59;;;;;;;2.47;0.52;;;;;;;18.75;75.61;99908.63;5048428;28;20037;-81
2022/08/03 10:42:30;;;;;;;2.47;0.30;;;;;;;18.82;75.37;99908.59;5046235;28;20438;-80
2022/08/03 10:45:08;;;;;;;2.92;0.40;;;;;;;18.99;75.26;99913.47;5052889;28;20032;-80
2022/08/03 10:47:35;;;;;;;3.10;0.88;;;;;;;19.13;74.66;99908.91;5039631;28;20033;-80
2022/08/03 10:50:02;;;;;;;2.97;0.50;;;;;;;19.21;74.28;99908.63;5057370;28;20033;-81
2022/08/03 10:52:27;;;;;;;2.25;0.43;;;;;;;19.28;73.58;99904.06;5053758;28;20074;-81
2022/08/03 10:57:51;;;;;;;2.28;0.47;;;;;;;19.33;72.62;99908.78;5056998;28;20137;-80
2022/08/03 11:00:22;;;;;;;2.28;0.30;;;;;;;19.33;72.73;99911.47;5051204;28;20405;-80
2022/08/03 11:03:01;;;;;;;3.10;0.63;;;;;;;19.08;72.66;99928.25;5044420;28;20035;-80
2022/08/03 11:05:33;;;;;;;1.70;0.20;;;;;;;18.78;74.71;99934.97;5054728;28;20048;-80
2022/08/03 11:08:27;;;;;;;1.08;0.20;;;;;;;18.39;76.27;99944.75;5054747;28;20048;-80
2022/08/03 11:11:17;;;;;;;2.70;0.30;;;;;;;18.11;77.63;99943.94;5055984;28;20033;-80
2022/08/03 11:14:03;;;;;;;0.43;0.10;;;;;;;17.95;78.82;99953.19;5047272;28;20464;-81
2022/08/03 11:16:34;;;;;;;1.17;0.20;;;;;;;17.83;79.40;99955.66;5048484;28;20045;-81
2022/08/03 11:19:05;;;;;;;0.88;0.20;;;;;;;17.93;79.54;99957.94;5049856;28;20083;-81
2022/08/03 11:21:49;;;;;;;1.75;0.20;;;;;;;18.12;79.53;99947.47;5030993;28;20370;-81
2022/08/03 11:24:40;;;;;;;1.90;0.20;;;;;;;18.40;78.51;99933.00;5054165;28;20033;-80
2022/08/03 11:27:18;;;;;;;0.38;0.20;;;;;;;18.60;77.32;99935.66;5053811;28;20036;-80
2022/08/03 11:29:59;;;;;;;0.82;0.10;;;;;;;18.86;76.56;99941.16;5053289;28;20409;-81
2022/08/03 11:32:37;;;;;;;1.20;0.30;;;;;;;18.98;75.70;99939.44;5059604;28;20036;-81
2022/08/03 11:35:12;;;;;;;1.92;0.20;;;;;;;18.88;75.40;99955.94;5048113;28;20041;-80
2022/08/03 11:37:53;;;;;;;3.03;0.17;;;;;;;18.53;76.24;99964.28;5047243;28;20379;-80
2022/08/03 11:40:34;;;;;;;0.20;0.10;;;;;;;18.20;77.40;99966.78;5068100;28;20474;-80
2022/08/03 11:43:00;;;;;;;0.90;0.10;;;;;;;17.95;78.81;99972.72;5057357;28;20068;-80
2022/08/03 11:45:27;;;;;;;0.38;0.08;;;;;;;17.79;78.79;99976.63;5049864;28;20031;-80
2022/08/03 11:47:54;;;;;;;0.47;0.10;;;;;;;17.73;78.62;99980.13;5048653;28;20067;-80
2022/08/03 11:50:21;;;;;;;1.30;0.20;;;;;;;17.77;78.67;99983.22;5053052;28;20097;-80